VIAH weather

Dhanipur Airstrip
Aligarth, Uttar Pradesh, India

Public forecast

Using degrees Celsius for public forecast. Weather courtesy of forecast.io.

METAR (pilot weather report)

Closest report is Agra Airport, 43.5 nm (80.5 km) SSW. Retrieved 2019/09/21 05:30 UTC (14 minutes ago):

VIAG 210530Z VRB02KT 6000 SCT025 SCT100 32/26 Q1009 TEMPO RA

TAF (pilot weather forecast)

Closest forecast is Agra Airport, 43.5 nm (80.5 km) SSW. Retrieved 2019/09/21 00:30 UTC (5 hours ago):

TAF VIAG 202130Z 2100/2112 VRB02KT 1500 BR SCT020 SCT090 BECMG 2103/2104 12005KT 2000 BR BECMG 2104/2105 4000 BR BECMG 2105/2112 11010KT 6000 SCT020 SCT090 TEMPO 2108/2112 3000 TSRA SCT015 FEW030CB SCT090